sensor_id;sensor_type;location;lat;lon;timestamp;P1;durP1;ratioP1;P2;durP2;ratioP2
67715;SDS011;54508;43.238;25.306;2022-09-09T00:04:38;2.58;;;1.95;;
67715;SDS011;54508;43.238;25.306;2022-09-09T00:07:07;2.83;;;2.20;;
67715;SDS011;54508;43.238;25.306;2022-09-09T00:09:51;1.70;;;1.60;;
67715;SDS011;54508;43.238;25.306;2022-09-09T00:15:07;2.25;;;2.00;;
67715;SDS011;54508;43.238;25.306;2022-09-09T00:17:52;2.13;;;1.92;;
67715;SDS011;54508;43.238;25.306;2022-09-09T00:20:39;2.28;;;2.08;;
67715;SDS011;54508;43.238;25.306;2022-09-09T00:23:29;3.77;;;2.33;;
67715;SDS011;54508;43.238;25.306;2022-09-09T00:28:53;1.95;;;1.85;;
67715;SDS011;54508;43.238;25.306;2022-09-09T00:31:28;1.88;;;1.77;;
67715;SDS011;54508;43.238;25.306;2022-09-09T00:33:55;2.08;;;1.88;;
67715;SDS011;54508;43.238;25.306;2022-09-09T00:36:33;2.07;;;1.87;;
67715;SDS011;54508;43.238;25.306;2022-09-09T00:39:01;2.15;;;1.90;;
67715;SDS011;54508;43.238;25.306;2022-09-09T00:44:37;2.20;;;1.70;;
67715;SDS011;54508;43.238;25.306;2022-09-09T00:57:52;2.10;;;1.77;;
67715;SDS011;54508;43.238;25.306;2022-09-09T01:00:22;2.47;;;2.10;;
67715;SDS011;54508;43.238;25.306;2022-09-09T01:11:23;3.40;;;2.13;;
67715;SDS011;54508;43.238;25.306;2022-09-09T01:14:16;2.10;;;1.90;;
67715;SDS011;54508;43.238;25.306;2022-09-09T01:16:50;3.35;;;1.90;;
67715;SDS011;54508;43.238;25.306;2022-09-09T01:19:25;3.25;;;2.15;;
67715;SDS011;54508;43.238;25.306;2022-09-09T01:27:51;2.47;;;1.73;;
67715;SDS011;54508;43.238;25.306;2022-09-09T01:30:20;2.15;;;1.95;;
67715;SDS011;54508;43.238;25.306;2022-09-09T01:32:47;2.65;;;1.98;;
67715;SDS011;54508;43.238;25.306;2022-09-09T01:38:10;2.08;;;1.85;;
67715;SDS011;54508;43.238;25.306;2022-09-09T01:40:36;1.90;;;1.80;;
67715;SDS011;54508;43.238;25.306;2022-09-09T01:43:02;2.00;;;1.90;;
67715;SDS011;54508;43.238;25.306;2022-09-09T01:45:27;2.20;;;2.00;;
67715;SDS011;54508;43.238;25.306;2022-09-09T01:47:53;1.90;;;1.80;;
67715;SDS011;54508;43.238;25.306;2022-09-09T01:50:18;2.30;;;2.10;;
67715;SDS011;54508;43.238;25.306;2022-09-09T01:52:45;1.92;;;1.77;;
67715;SDS011;54508;43.238;25.306;2022-09-09T01:55:12;3.08;;;1.88;;
67715;SDS011;54508;43.238;25.306;2022-09-09T02:00:26;2.40;;;2.20;;
67715;SDS011;54508;43.238;25.306;2022-09-09T02:05:37;2.63;;;2.30;;
67715;SDS011;54508;43.238;25.306;2022-09-09T02:08:20;2.15;;;1.95;;
67715;SDS011;54508;43.238;25.306;2022-09-09T02:10:51;3.57;;;2.00;;
67715;SDS011;54508;43.238;25.306;2022-09-09T02:13:23;2.40;;;2.20;;
67715;SDS011;54508;43.238;25.306;2022-09-09T02:18:32;2.53;;;1.90;;
67715;SDS011;54508;43.238;25.306;2022-09-09T02:21:02;3.25;;;2.60;;
67715;SDS011;54508;43.238;25.306;2022-09-09T02:23:28;2.30;;;2.00;;
67715;SDS011;54508;43.238;25.306;2022-09-09T02:25:53;3.10;;;1.87;;
67715;SDS011;54508;43.238;25.306;2022-09-09T02:28:21;2.17;;;1.98;;
67715;SDS011;54508;43.238;25.306;2022-09-09T02:30:49;2.40;;;2.20;;
67715;SDS011;54508;43.238;25.306;2022-09-09T02:33:20;4.15;;;2.08;;
67715;SDS011;54508;43.238;25.306;2022-09-09T02:35:49;2.65;;;2.00;;
67715;SDS011;54508;43.238;25.306;2022-09-09T02:38:16;4.53;;;2.37;;
67715;SDS011;54508;43.238;25.306;2022-09-09T02:40:42;2.38;;;2.17;;
67715;SDS011;54508;43.238;25.306;2022-09-09T02:43:08;3.87;;;2.23;;
67715;SDS011;54508;43.238;25.306;2022-09-09T02:45:40;2.72;;;2.33;;
67715;SDS011;54508;43.238;25.306;2022-09-09T02:48:17;2.85;;;2.03;;
67715;SDS011;54508;43.238;25.306;2022-09-09T02:53:49;2.30;;;2.10;;
67715;SDS011;54508;43.238;25.306;2022-09-09T02:56:32;2.33;;;2.13;;
67715;SDS011;54508;43.238;25.306;2022-09-09T02:59:04;2.30;;;2.10;;
67715;SDS011;54508;43.238;25.306;2022-09-09T03:01:30;2.20;;;2.00;;
67715;SDS011;54508;43.238;25.306;2022-09-09T03:03:55;2.38;;;2.17;;
67715;SDS011;54508;43.238;25.306;2022-09-09T03:06:20;2.63;;;2.10;;
67715;SDS011;54508;43.238;25.306;2022-09-09T03:08:46;2.42;;;2.22;;
67715;SDS011;54508;43.238;25.306;2022-09-09T03:11:14;2.10;;;1.90;;
67715;SDS011;54508;43.238;25.306;2022-09-09T03:13:40;2.47;;;2.10;;
67715;SDS011;54508;43.238;25.306;2022-09-09T03:16:06;1.93;;;1.77;;
67715;SDS011;54508;43.238;25.306;2022-09-09T03:18:31;2.72;;;2.10;;
67715;SDS011;54508;43.238;25.306;2022-09-09T03:20:57;2.87;;;1.80;;
67715;SDS011;54508;43.238;25.306;2022-09-09T03:23:24;3.08;;;2.20;;
67715;SDS011;54508;43.238;25.306;2022-09-09T03:25:50;3.10;;;2.20;;
67715;SDS011;54508;43.238;25.306;2022-09-09T03:28:17;2.20;;;2.00;;
67715;SDS011;54508;43.238;25.306;2022-09-09T03:30:42;2.92;;;2.00;;
67715;SDS011;54508;43.238;25.306;2022-09-09T03:33:08;2.40;;;2.00;;
67715;SDS011;54508;43.238;25.306;2022-09-09T03:35:33;1.73;;;1.63;;
67715;SDS011;54508;43.238;25.306;2022-09-09T03:37:59;2.27;;;1.90;;
67715;SDS011;54508;43.238;25.306;2022-09-09T03:40:25;1.88;;;1.77;;
67715;SDS011;54508;43.238;25.306;2022-09-09T03:42:51;2.30;;;2.10;;
67715;SDS011;54508;43.238;25.306;2022-09-09T03:45:16;2.00;;;1.80;;
67715;SDS011;54508;43.238;25.306;2022-09-09T03:47:42;4.57;;;1.80;;
67715;SDS011;54508;43.238;25.306;2022-09-09T03:50:08;2.75;;;1.80;;
67715;SDS011;54508;43.238;25.306;2022-09-09T03:52:38;2.50;;;2.30;;
67715;SDS011;54508;43.238;25.306;2022-09-09T03:55:06;2.55;;;2.10;;
67715;SDS011;54508;43.238;25.306;2022-09-09T03:57:32;2.42;;;2.22;;
67715;SDS011;54508;43.238;25.306;2022-09-09T04:00:00;2.03;;;1.83;;
67715;SDS011;54508;43.238;25.306;2022-09-09T04:02:28;2.08;;;1.92;;
67715;SDS011;54508;43.238;25.306;2022-09-09T04:04:53;2.17;;;1.90;;
67715;SDS011;54508;43.238;25.306;2022-09-09T04:07:19;2.10;;;1.90;;
67715;SDS011;54508;43.238;25.306;2022-09-09T04:09:44;2.97;;;2.27;;
67715;SDS011;54508;43.238;25.306;2022-09-09T04:12:09;2.93;;;2.10;;
67715;SDS011;54508;43.238;25.306;2022-09-09T04:14:38;2.28;;;2.08;;
67715;SDS011;54508;43.238;25.306;2022-09-09T04:17:04;3.07;;;1.97;;
67715;SDS011;54508;43.238;25.306;2022-09-09T04:19:31;2.10;;;1.95;;
67715;SDS011;54508;43.238;25.306;2022-09-09T04:21:57;4.03;;;1.95;;
67715;SDS011;54508;43.238;25.306;2022-09-09T04:24:22;2.80;;;1.90;;
67715;SDS011;54508;43.238;25.306;2022-09-09T04:26:49;2.03;;;1.88;;
67715;SDS011;54508;43.238;25.306;2022-09-09T04:29:15;3.10;;;2.50;;
67715;SDS011;54508;43.238;25.306;2022-09-09T04:31:40;3.50;;;2.60;;
67715;SDS011;54508;43.238;25.306;2022-09-09T04:34:07;4.78;;;2.17;;
67715;SDS011;54508;43.238;25.306;2022-09-09T04:36:33;2.25;;;2.05;;
67715;SDS011;54508;43.238;25.306;2022-09-09T04:39:00;2.13;;;1.83;;
67715;SDS011;54508;43.238;25.306;2022-09-09T04:41:25;5.95;;;2.13;;
67715;SDS011;54508;43.238;25.306;2022-09-09T04:43:51;4.18;;;2.22;;
67715;SDS011;54508;43.238;25.306;2022-09-09T04:46:18;4.70;;;2.17;;
67715;SDS011;54508;43.238;25.306;2022-09-09T04:48:44;2.10;;;1.80;;
67715;SDS011;54508;43.238;25.306;2022-09-09T04:51:11;2.63;;;2.15;;
67715;SDS011;54508;43.238;25.306;2022-09-09T04:53:38;2.60;;;1.90;;
67715;SDS011;54508;43.238;25.306;2022-09-09T04:58:38;2.25;;;2.05;;
67715;SDS011;54508;43.238;25.306;2022-09-09T05:03:36;5.50;;;2.40;;
67715;SDS011;54508;43.238;25.306;2022-09-09T05:06:12;4.03;;;2.33;;
67715;SDS011;54508;43.238;25.306;2022-09-09T05:08:39;3.95;;;2.70;;
67715;SDS011;54508;43.238;25.306;2022-09-09T05:13:44;2.60;;;2.40;;
67715;SDS011;54508;43.238;25.306;2022-09-09T05:16:10;2.72;;;2.13;;
67715;SDS011;54508;43.238;25.306;2022-09-09T05:18:36;5.37;;;3.27;;
67715;SDS011;54508;43.238;25.306;2022-09-09T05:21:05;9.48;;;3.53;;
67715;SDS011;54508;43.238;25.306;2022-09-09T05:23:31;4.05;;;3.65;;
67715;SDS011;54508;43.238;25.306;2022-09-09T05:25:59;11.20;;;5.13;;
67715;SDS011;54508;43.238;25.306;2022-09-09T05:28:35;5.95;;;4.68;;
67715;SDS011;54508;43.238;25.306;2022-09-09T05:31:06;9.02;;;6.07;;
67715;SDS011;54508;43.238;25.306;2022-09-09T05:33:36;14.20;;;6.07;;
67715;SDS011;54508;43.238;25.306;2022-09-09T05:38:29;13.75;;;5.10;;
67715;SDS011;54508;43.238;25.306;2022-09-09T05:40:55;7.43;;;4.95;;
67715;SDS011;54508;43.238;25.306;2022-09-09T05:43:24;12.80;;;4.60;;
67715;SDS011;54508;43.238;25.306;2022-09-09T05:46:00;4.32;;;3.90;;
67715;SDS011;54508;43.238;25.306;2022-09-09T05:48:31;9.70;;;5.05;;
67715;SDS011;54508;43.238;25.306;2022-09-09T05:50:58;7.80;;;4.57;;
67715;SDS011;54508;43.238;25.306;2022-09-09T05:53:24;7.57;;;4.70;;
67715;SDS011;54508;43.238;25.306;2022-09-09T05:55:50;5.30;;;4.20;;
67715;SDS011;54508;43.238;25.306;2022-09-09T05:58:15;7.97;;;4.60;;
67715;SDS011;54508;43.238;25.306;2022-09-09T06:00:42;8.20;;;4.03;;
67715;SDS011;54508;43.238;25.306;2022-09-09T06:03:12;5.30;;;4.38;;
67715;SDS011;54508;43.238;25.306;2022-09-09T06:05:37;6.72;;;4.70;;
67715;SDS011;54508;43.238;25.306;2022-09-09T06:08:03;9.80;;;4.90;;
67715;SDS011;54508;43.238;25.306;2022-09-09T06:10:28;10.50;;;4.82;;
67715;SDS011;54508;43.238;25.306;2022-09-09T06:12:54;8.80;;;4.70;;
67715;SDS011;54508;43.238;25.306;2022-09-09T06:15:19;6.13;;;4.67;;
67715;SDS011;54508;43.238;25.306;2022-09-09T06:17:45;5.82;;;4.32;;
67715;SDS011;54508;43.238;25.306;2022-09-09T06:20:11;7.80;;;3.77;;
67715;SDS011;54508;43.238;25.306;2022-09-09T06:22:39;5.70;;;3.90;;
67715;SDS011;54508;43.238;25.306;2022-09-09T06:25:06;8.73;;;4.22;;
67715;SDS011;54508;43.238;25.306;2022-09-09T06:27:36;5.95;;;3.63;;
67715;SDS011;54508;43.238;25.306;2022-09-09T06:30:04;7.35;;;3.28;;
67715;SDS011;54508;43.238;25.306;2022-09-09T06:32:30;4.22;;;3.40;;
67715;SDS011;54508;43.238;25.306;2022-09-09T06:34:56;4.20;;;3.10;;
67715;SDS011;54508;43.238;25.306;2022-09-09T06:37:21;6.30;;;3.00;;
67715;SDS011;54508;43.238;25.306;2022-09-09T06:39:49;6.82;;;3.03;;
67715;SDS011;54508;43.238;25.306;2022-09-09T06:42:15;5.05;;;3.17;;
67715;SDS011;54508;43.238;25.306;2022-09-09T06:44:41;5.03;;;3.33;;
67715;SDS011;54508;43.238;25.306;2022-09-09T06:47:06;5.07;;;2.63;;
67715;SDS011;54508;43.238;25.306;2022-09-09T06:49:32;4.67;;;3.20;;
67715;SDS011;54508;43.238;25.306;2022-09-09T06:51:57;4.93;;;2.78;;
67715;SDS011;54508;43.238;25.306;2022-09-09T06:54:23;7.77;;;3.13;;
67715;SDS011;54508;43.238;25.306;2022-09-09T06:56:50;4.38;;;2.63;;
67715;SDS011;54508;43.238;25.306;2022-09-09T06:59:16;6.63;;;2.53;;
67715;SDS011;54508;43.238;25.306;2022-09-09T07:01:42;5.37;;;2.73;;
67715;SDS011;54508;43.238;25.306;2022-09-09T07:04:14;6.60;;;2.80;;
67715;SDS011;54508;43.238;25.306;2022-09-09T07:06:40;7.35;;;2.45;;
67715;SDS011;54508;43.238;25.306;2022-09-09T07:09:09;5.00;;;2.30;;
67715;SDS011;54508;43.238;25.306;2022-09-09T07:11:40;3.65;;;2.17;;
67715;SDS011;54508;43.238;25.306;2022-09-09T07:14:07;5.68;;;2.40;;
67715;SDS011;54508;43.238;25.306;2022-09-09T07:16:33;5.57;;;2.33;;
67715;SDS011;54508;43.238;25.306;2022-09-09T07:19:02;6.78;;;2.55;;
67715;SDS011;54508;43.238;25.306;2022-09-09T07:21:28;4.00;;;2.17;;
67715;SDS011;54508;43.238;25.306;2022-09-09T07:23:54;5.93;;;2.10;;
67715;SDS011;54508;43.238;25.306;2022-09-09T07:26:22;5.82;;;2.97;;
67715;SDS011;54508;43.238;25.306;2022-09-09T07:28:52;10.45;;;3.28;;
67715;SDS011;54508;43.238;25.306;2022-09-09T07:31:22;10.18;;;3.30;;
67715;SDS011;54508;43.238;25.306;2022-09-09T07:33:50;4.35;;;3.05;;
67715;SDS011;54508;43.238;25.306;2022-09-09T07:36:17;8.13;;;3.33;;
67715;SDS011;54508;43.238;25.306;2022-09-09T07:38:47;5.32;;;3.20;;
67715;SDS011;54508;43.238;25.306;2022-09-09T07:41:16;7.10;;;3.57;;
67715;SDS011;54508;43.238;25.306;2022-09-09T07:43:46;12.32;;;4.43;;
67715;SDS011;54508;43.238;25.306;2022-09-09T07:46:13;10.75;;;4.57;;
67715;SDS011;54508;43.238;25.306;2022-09-09T07:48:45;7.47;;;4.00;;
67715;SDS011;54508;43.238;25.306;2022-09-09T07:51:12;9.80;;;3.83;;
67715;SDS011;54508;43.238;25.306;2022-09-09T07:53:44;4.97;;;3.53;;
67715;SDS011;54508;43.238;25.306;2022-09-09T07:56:11;6.78;;;4.35;;
67715;SDS011;54508;43.238;25.306;2022-09-09T07:58:39;6.40;;;3.80;;
67715;SDS011;54508;43.238;25.306;2022-09-09T08:01:12;11.27;;;3.92;;
67715;SDS011;54508;43.238;25.306;2022-09-09T08:03:39;10.32;;;3.55;;
67715;SDS011;54508;43.238;25.306;2022-09-09T08:06:06;5.65;;;3.08;;
67715;SDS011;54508;43.238;25.306;2022-09-09T08:08:33;5.70;;;3.20;;
67715;SDS011;54508;43.238;25.306;2022-09-09T08:11:04;7.57;;;3.17;;
67715;SDS011;54508;43.238;25.306;2022-09-09T08:13:33;8.13;;;3.72;;
67715;SDS011;54508;43.238;25.306;2022-09-09T08:18:31;9.10;;;5.03;;
67715;SDS011;54508;43.238;25.306;2022-09-09T08:20:57;7.60;;;4.97;;
67715;SDS011;54508;43.238;25.306;2022-09-09T08:23:23;8.88;;;5.90;;
67715;SDS011;54508;43.238;25.306;2022-09-09T08:25:48;9.95;;;6.20;;
67715;SDS011;54508;43.238;25.306;2022-09-09T08:28:15;8.40;;;5.82;;
67715;SDS011;54508;43.238;25.306;2022-09-09T08:30:40;12.20;;;5.32;;
67715;SDS011;54508;43.238;25.306;2022-09-09T08:33:06;7.70;;;5.53;;
67715;SDS011;54508;43.238;25.306;2022-09-09T08:35:33;13.98;;;6.63;;
67715;SDS011;54508;43.238;25.306;2022-09-09T08:37:58;11.25;;;7.22;;
67715;SDS011;54508;43.238;25.306;2022-09-09T08:40:26;13.57;;;8.50;;
67715;SDS011;54508;43.238;25.306;2022-09-09T08:42:55;12.63;;;9.30;;
67715;SDS011;54508;43.238;25.306;2022-09-09T08:45:24;10.83;;;9.17;;
67715;SDS011;54508;43.238;25.306;2022-09-09T08:47:56;21.08;;;8.98;;
67715;SDS011;54508;43.238;25.306;2022-09-09T08:50:36;11.35;;;8.98;;
67715;SDS011;54508;43.238;25.306;2022-09-09T08:53:27;10.13;;;9.13;;
67715;SDS011;54508;43.238;25.306;2022-09-09T08:55:58;14.38;;;10.38;;
67715;SDS011;54508;43.238;25.306;2022-09-09T08:58:25;14.80;;;11.93;;
67715;SDS011;54508;43.238;25.306;2022-09-09T09:01:13;12.30;;;11.10;;
67715;SDS011;54508;43.238;25.306;2022-09-09T09:07:16;13.32;;;10.32;;
67715;SDS011;54508;43.238;25.306;2022-09-09T09:12:38;15.03;;;9.43;;
67715;SDS011;54508;43.238;25.306;2022-09-09T09:15:11;12.90;;;8.98;;
67715;SDS011;54508;43.238;25.306;2022-09-09T09:17:42;12.98;;;11.10;;
67715;SDS011;54508;43.238;25.306;2022-09-09T09:20:12;14.48;;;11.55;;
67715;SDS011;54508;43.238;25.306;2022-09-09T09:22:49;13.85;;;11.50;;
67715;SDS011;54508;43.238;25.306;2022-09-09T09:25:23;18.77;;;10.03;;
67715;SDS011;54508;43.238;25.306;2022-09-09T09:30:39;10.15;;;9.15;;
67715;SDS011;54508;43.238;25.306;2022-09-09T09:35:54;11.32;;;8.27;;
67715;SDS011;54508;43.238;25.306;2022-09-09T09:38:24;10.33;;;7.40;;
67715;SDS011;54508;43.238;25.306;2022-09-09T09:40:55;12.82;;;7.60;;
67715;SDS011;54508;43.238;25.306;2022-09-09T09:43:32;14.40;;;7.72;;
67715;SDS011;54508;43.238;25.306;2022-09-09T09:45:58;12.10;;;6.97;;
67715;SDS011;54508;43.238;25.306;2022-09-09T09:48:25;12.57;;;6.93;;
67715;SDS011;54508;43.238;25.306;2022-09-09T09:50:52;13.40;;;7.45;;
67715;SDS011;54508;43.238;25.306;2022-09-09T09:53:30;8.02;;;7.22;;
67715;SDS011;54508;43.238;25.306;2022-09-09T09:55:58;9.30;;;7.22;;
67715;SDS011;54508;43.238;25.306;2022-09-09T09:58:25;8.10;;;7.30;;
67715;SDS011;54508;43.238;25.306;2022-09-09T10:04:12;11.93;;;7.28;;
67715;SDS011;54508;43.238;25.306;2022-09-09T10:06:45;12.57;;;9.25;;
67715;SDS011;54508;43.238;25.306;2022-09-09T10:36:49;22.77;;;19.53;;
67715;SDS011;54508;43.238;25.306;2022-09-09T10:39:18;28.98;;;19.67;;
67715;SDS011;54508;43.238;25.306;2022-09-09T10:41:54;21.25;;;18.95;;
67715;SDS011;54508;43.238;25.306;2022-09-09T10:50:14;21.90;;;19.60;;
67715;SDS011;54508;43.238;25.306;2022-09-09T10:55:25;23.85;;;19.77;;
67715;SDS011;54508;43.238;25.306;2022-09-09T10:57:57;23.27;;;19.60;;
67715;SDS011;54508;43.238;25.306;2022-09-09T11:00:45;20.35;;;17.55;;
67715;SDS011;54508;43.238;25.306;2022-09-09T11:06:06;22.13;;;18.63;;
67715;SDS011;54508;43.238;25.306;2022-09-09T11:08:38;19.90;;;17.08;;
67715;SDS011;54508;43.238;25.306;2022-09-09T11:14:04;18.05;;;15.82;;
67715;SDS011;54508;43.238;25.306;2022-09-09T11:22:27;17.20;;;13.80;;
67715;SDS011;54508;43.238;25.306;2022-09-09T11:25:10;18.35;;;13.50;;
67715;SDS011;54508;43.238;25.306;2022-09-09T11:35:53;18.13;;;12.20;;
67715;SDS011;54508;43.238;25.306;2022-09-09T11:41:19;13.18;;;9.38;;
67715;SDS011;54508;43.238;25.306;2022-09-09T11:43:49;13.63;;;8.90;;
67715;SDS011;54508;43.238;25.306;2022-09-09T11:46:17;12.73;;;8.93;;
67715;SDS011;54508;43.238;25.306;2022-09-09T11:48:58;9.25;;;8.13;;
67715;SDS011;54508;43.238;25.306;2022-09-09T11:51:28;8.35;;;7.45;;
67715;SDS011;54508;43.238;25.306;2022-09-09T11:53:59;9.38;;;7.72;;
67715;SDS011;54508;43.238;25.306;2022-09-09T11:56:45;8.93;;;7.00;;
67715;SDS011;54508;43.238;25.306;2022-09-09T11:59:24;9.57;;;6.88;;
67715;SDS011;54508;43.238;25.306;2022-09-09T12:01:55;8.68;;;6.65;;
67715;SDS011;54508;43.238;25.306;2022-09-09T12:10:23;10.13;;;6.03;;
67715;SDS011;54508;43.238;25.306;2022-09-09T12:12:51;6.93;;;5.95;;
67715;SDS011;54508;43.238;25.306;2022-09-09T12:17:46;9.93;;;8.25;;
67715;SDS011;54508;43.238;25.306;2022-09-09T12:31:10;10.68;;;8.23;;
67715;SDS011;54508;43.238;25.306;2022-09-09T12:33:47;9.02;;;8.13;;
67715;SDS011;54508;43.238;25.306;2022-09-09T12:36:23;9.38;;;8.38;;
67715;SDS011;54508;43.238;25.306;2022-09-09T12:38:51;10.25;;;8.73;;
67715;SDS011;54508;43.238;25.306;2022-09-09T12:41:18;11.75;;;8.18;;
67715;SDS011;54508;43.238;25.306;2022-09-09T12:44:05;9.40;;;8.20;;
67715;SDS011;54508;43.238;25.306;2022-09-09T12:46:38;10.95;;;7.80;;
67715;SDS011;54508;43.238;25.306;2022-09-09T12:49:05;9.55;;;8.55;;
67715;SDS011;54508;43.238;25.306;2022-09-09T12:51:43;8.40;;;7.50;;
67715;SDS011;54508;43.238;25.306;2022-09-09T12:54:12;9.33;;;7.57;;
67715;SDS011;54508;43.238;25.306;2022-09-09T12:56:39;10.45;;;8.77;;
67715;SDS011;54508;43.238;25.306;2022-09-09T12:59:04;9.77;;;8.77;;
67715;SDS011;54508;43.238;25.306;2022-09-09T13:01:31;10.17;;;8.50;;
67715;SDS011;54508;43.238;25.306;2022-09-09T13:03:58;9.40;;;7.68;;
67715;SDS011;54508;43.238;25.306;2022-09-09T13:08:54;8.27;;;6.93;;
67715;SDS011;54508;43.238;25.306;2022-09-09T13:14:12;10.27;;;6.47;;
67715;SDS011;54508;43.238;25.306;2022-09-09T13:17:00;6.90;;;5.85;;
67715;SDS011;54508;43.238;25.306;2022-09-09T13:19:29;7.28;;;6.13;;
67715;SDS011;54508;43.238;25.306;2022-09-09T13:21:57;8.20;;;5.95;;
67715;SDS011;54508;43.238;25.306;2022-09-09T13:27:00;6.57;;;5.43;;
67715;SDS011;54508;43.238;25.306;2022-09-09T13:29:27;5.78;;;5.10;;
67715;SDS011;54508;43.238;25.306;2022-09-09T13:31:53;5.70;;;5.07;;
67715;SDS011;54508;43.238;25.306;2022-09-09T13:36:55;7.97;;;5.00;;
67715;SDS011;54508;43.238;25.306;2022-09-09T13:39:27;5.20;;;4.70;;
67715;SDS011;54508;43.238;25.306;2022-09-09T13:41:53;5.30;;;4.43;;
67715;SDS011;54508;43.238;25.306;2022-09-09T13:44:21;5.78;;;4.70;;
67715;SDS011;54508;43.238;25.306;2022-09-09T13:49:26;5.78;;;4.45;;
67715;SDS011;54508;43.238;25.306;2022-09-09T13:52:02;7.93;;;4.35;;
67715;SDS011;54508;43.238;25.306;2022-09-09T13:54:30;9.85;;;4.68;;
67715;SDS011;54508;43.238;25.306;2022-09-09T13:56:55;8.23;;;4.00;;
67715;SDS011;54508;43.238;25.306;2022-09-09T13:59:21;7.70;;;4.28;;
67715;SDS011;54508;43.238;25.306;2022-09-09T14:01:47;8.05;;;4.60;;
67715;SDS011;54508;43.238;25.306;2022-09-09T14:04:14;11.20;;;5.32;;
67715;SDS011;54508;43.238;25.306;2022-09-09T14:06:40;12.05;;;6.82;;
67715;SDS011;54508;43.238;25.306;2022-09-09T14:09:06;9.15;;;6.40;;
67715;SDS011;54508;43.238;25.306;2022-09-09T14:11:33;9.63;;;6.25;;
67715;SDS011;54508;43.238;25.306;2022-09-09T14:13:58;8.43;;;5.83;;
67715;SDS011;54508;43.238;25.306;2022-09-09T14:16:25;9.82;;;6.05;;
67715;SDS011;54508;43.238;25.306;2022-09-09T14:18:53;10.50;;;6.80;;
67715;SDS011;54508;43.238;25.306;2022-09-09T14:21:18;9.25;;;6.35;;
67715;SDS011;54508;43.238;25.306;2022-09-09T14:23:43;17.13;;;6.77;;
67715;SDS011;54508;43.238;25.306;2022-09-09T14:26:09;10.35;;;6.93;;
67715;SDS011;54508;43.238;25.306;2022-09-09T14:28:35;9.65;;;6.53;;
67715;SDS011;54508;43.238;25.306;2022-09-09T14:31:02;9.13;;;6.78;;
67715;SDS011;54508;43.238;25.306;2022-09-09T14:33:28;9.65;;;6.70;;
67715;SDS011;54508;43.238;25.306;2022-09-09T14:35:58;7.90;;;6.70;;
67715;SDS011;54508;43.238;25.306;2022-09-09T14:38:25;8.68;;;6.85;;
67715;SDS011;54508;43.238;25.306;2022-09-09T14:40:53;6.97;;;5.85;;
67715;SDS011;54508;43.238;25.306;2022-09-09T14:43:19;9.20;;;6.60;;
67715;SDS011;54508;43.238;25.306;2022-09-09T14:45:45;7.75;;;6.03;;
67715;SDS011;54508;43.238;25.306;2022-09-09T14:48:13;7.68;;;6.63;;
67715;SDS011;54508;43.238;25.306;2022-09-09T14:50:41;10.52;;;6.15;;
67715;SDS011;54508;43.238;25.306;2022-09-09T14:53:12;8.90;;;6.07;;
67715;SDS011;54508;43.238;25.306;2022-09-09T14:55:37;9.73;;;6.30;;
67715;SDS011;54508;43.238;25.306;2022-09-09T14:58:03;7.38;;;5.70;;
67715;SDS011;54508;43.238;25.306;2022-09-09T15:00:30;8.65;;;5.68;;
67715;SDS011;54508;43.238;25.306;2022-09-09T15:02:56;7.65;;;5.72;;
67715;SDS011;54508;43.238;25.306;2022-09-09T15:05:21;7.70;;;5.93;;
67715;SDS011;54508;43.238;25.306;2022-09-09T15:07:47;13.05;;;8.02;;
67715;SDS011;54508;43.238;25.306;2022-09-09T15:10:16;9.80;;;7.70;;
67715;SDS011;54508;43.238;25.306;2022-09-09T15:12:42;15.13;;;8.63;;
67715;SDS011;54508;43.238;25.306;2022-09-09T15:15:08;9.40;;;8.13;;
67715;SDS011;54508;43.238;25.306;2022-09-09T15:17:34;9.55;;;7.10;;
67715;SDS011;54508;43.238;25.306;2022-09-09T15:20:01;8.57;;;6.30;;
67715;SDS011;54508;43.238;25.306;2022-09-09T15:22:31;6.75;;;6.05;;
67715;SDS011;54508;43.238;25.306;2022-09-09T15:24:57;9.70;;;6.25;;
67715;SDS011;54508;43.238;25.306;2022-09-09T15:27:22;6.18;;;5.57;;
67715;SDS011;54508;43.238;25.306;2022-09-09T15:29:48;6.93;;;5.35;;
67715;SDS011;54508;43.238;25.306;2022-09-09T15:32:15;6.63;;;5.30;;
67715;SDS011;54508;43.238;25.306;2022-09-09T15:34:40;6.93;;;5.17;;
67715;SDS011;54508;43.238;25.306;2022-09-09T15:37:09;6.95;;;4.85;;
67715;SDS011;54508;43.238;25.306;2022-09-09T15:39:37;7.13;;;5.22;;
67715;SDS011;54508;43.238;25.306;2022-09-09T15:42:04;6.20;;;5.00;;
67715;SDS011;54508;43.238;25.306;2022-09-09T15:44:29;6.93;;;5.03;;
67715;SDS011;54508;43.238;25.306;2022-09-09T15:46:55;7.65;;;5.32;;
67715;SDS011;54508;43.238;25.306;2022-09-09T15:49:24;5.65;;;4.53;;
67715;SDS011;54508;43.238;25.306;2022-09-09T15:51:54;6.22;;;5.00;;
67715;SDS011;54508;43.238;25.306;2022-09-09T15:54:22;10.37;;;5.00;;
67715;SDS011;54508;43.238;25.306;2022-09-09T15:56:53;5.70;;;5.13;;
67715;SDS011;54508;43.238;25.306;2022-09-09T15:59:21;7.85;;;4.80;;
67715;SDS011;54508;43.238;25.306;2022-09-09T16:01:47;12.45;;;5.10;;
67715;SDS011;54508;43.238;25.306;2022-09-09T16:04:15;9.82;;;5.22;;
67715;SDS011;54508;43.238;25.306;2022-09-09T16:06:46;5.77;;;4.70;;
67715;SDS011;54508;43.238;25.306;2022-09-09T16:09:11;5.78;;;4.30;;
67715;SDS011;54508;43.238;25.306;2022-09-09T16:11:37;8.63;;;4.90;;
67715;SDS011;54508;43.238;25.306;2022-09-09T16:14:04;5.90;;;5.00;;
67715;SDS011;54508;43.238;25.306;2022-09-09T16:16:31;7.57;;;4.60;;
67715;SDS011;54508;43.238;25.306;2022-09-09T16:18:58;8.25;;;4.82;;
67715;SDS011;54508;43.238;25.306;2022-09-09T16:21:26;7.45;;;5.25;;
67715;SDS011;54508;43.238;25.306;2022-09-09T16:23:58;6.72;;;4.70;;
67715;SDS011;54508;43.238;25.306;2022-09-09T16:26:26;8.65;;;4.90;;
67715;SDS011;54508;43.238;25.306;2022-09-09T16:28:55;6.67;;;4.23;;
67715;SDS011;54508;43.238;25.306;2022-09-09T16:31:21;4.70;;;4.20;;
67715;SDS011;54508;43.238;25.306;2022-09-09T16:33:48;8.38;;;4.10;;
67715;SDS011;54508;43.238;25.306;2022-09-09T16:36:16;4.60;;;3.95;;
67715;SDS011;54508;43.238;25.306;2022-09-09T16:38:46;7.47;;;4.15;;
67715;SDS011;54508;43.238;25.306;2022-09-09T16:41:12;6.67;;;4.13;;
67715;SDS011;54508;43.238;25.306;2022-09-09T16:43:39;5.68;;;3.45;;
67715;SDS011;54508;43.238;25.306;2022-09-09T16:46:15;4.47;;;3.78;;
67715;SDS011;54508;43.238;25.306;2022-09-09T16:48:43;5.13;;;3.40;;
67715;SDS011;54508;43.238;25.306;2022-09-09T16:51:20;3.33;;;3.00;;
67715;SDS011;54508;43.238;25.306;2022-09-09T16:53:53;3.55;;;3.25;;
67715;SDS011;54508;43.238;25.306;2022-09-09T16:56:21;3.28;;;2.85;;
67715;SDS011;54508;43.238;25.306;2022-09-09T16:58:54;3.53;;;3.22;;
67715;SDS011;54508;43.238;25.306;2022-09-09T17:01:24;3.67;;;2.90;;
67715;SDS011;54508;43.238;25.306;2022-09-09T17:03:57;3.63;;;2.90;;
67715;SDS011;54508;43.238;25.306;2022-09-09T17:06:26;3.00;;;2.55;;
67715;SDS011;54508;43.238;25.306;2022-09-09T17:08:59;2.80;;;2.40;;
67715;SDS011;54508;43.238;25.306;2022-09-09T17:11:26;2.90;;;2.70;;
67715;SDS011;54508;43.238;25.306;2022-09-09T17:13:52;2.60;;;2.40;;
67715;SDS011;54508;43.238;25.306;2022-09-09T17:16:20;3.58;;;2.30;;
67715;SDS011;54508;43.238;25.306;2022-09-09T17:18:46;2.58;;;2.38;;
67715;SDS011;54508;43.238;25.306;2022-09-09T17:21:14;2.30;;;2.10;;
67715;SDS011;54508;43.238;25.306;2022-09-09T17:23:41;2.45;;;2.25;;
67715;SDS011;54508;43.238;25.306;2022-09-09T17:26:07;2.73;;;2.03;;
67715;SDS011;54508;43.238;25.306;2022-09-09T17:28:36;2.38;;;2.17;;
67715;SDS011;54508;43.238;25.306;2022-09-09T17:31:03;2.63;;;2.08;;